EmailTwitter


Surface observations / Quebec / CYUL (71627)

Regions: Quebec | Canada | USA | Europe | France | UK | Elsewhere
Station
Display
Info & Location for CYUL (71627) | Help decoding METAR

Weather Conditions observed on 2017/11/19 at 16:53 UTC at MONTREAL INTL A, QB (CYUL)

Sky conditions: partly cloudy.

Obstruction(s) to Vision: light snow.

Temperature: -1.0 Celsius.

Dewpoint: -3.0 Celsius.

Relative Humidity: 86%

Windchill Factor: -8.

Windchill Factor (Gusts): -9.

Winds: West at 31 km/h or 17 knots.

Gust: 48 km/h or 26 knots.

Mean Sea level Pressure: 99.21 kilopascals.

Altimeter Setting (QNH): 99.19 kilopascals or 29.29 inches of mercury.

Horizontal visibility: 8.00 statute miles or 12.80 kilometers.

Height of the Ceiling: 549 metres ( 1800 feet ).

Coded METAR:

CYUL 191653Z 27017G26KT 8SM -SN FEW009 SCT014 BKN018 OVC028 M01/M03 A2929 RMK

SF1SF3ST2SC3 SF TR PRESRR SLP921=